TimePST,TemperatureF,Dew PointF,Humidity,Sea Level PressureIn,VisibilityMPH,Wind Direction,Wind SpeedMPH,Gust SpeedMPH,PrecipitationIn,Events,Conditions,WindDirDegrees,DateUTC
12:53 AM,44.1,37.9,79,30.05,5.0,WNW,8.1,-,N/A,,Haze,300,2013-01-28 08:53:00
1:53 AM,44.1,37.0,76,30.05,5.0,WNW,4.6,-,N/A,,Haze,290,2013-01-28 09:53:00
2:53 AM,45.0,37.0,74,30.06,5.0,West,6.9,-,N/A,,Haze,280,2013-01-28 10:53:00
3:08 AM,44.6,37.4,76,30.06,5.0,WNW,5.8,-,N/A,,Haze,290,2013-01-28 11:08:00
3:20 AM,44.6,37.4,76,30.06,5.0,NW,8.1,-,N/A,,Haze,310,2013-01-28 11:20:00
3:53 AM,44.1,37.0,76,30.07,5.0,NW,6.9,-,N/A,,Haze,310,2013-01-28 11:53:00
4:53 AM,44.1,37.0,76,30.07,5.0,West,5.8,-,0.00,Rain,Light Rain,280,2013-01-28 12:53:00
5:19 AM,44.6,37.4,76,30.07,2.0,WNW,4.6,-,N/A,Rain,Light Rain,290,2013-01-28 13:19:00
5:31 AM,44.6,37.4,76,30.07,1.8,WNW,3.5,-,0.04,Rain,Rain,300,2013-01-28 13:31:00
5:53 AM,44.1,37.9,79,30.08,3.0,WNW,5.8,-,0.10,Rain,Light Rain,290,2013-01-28 13:53:00
6:10 AM,42.8,37.4,81,30.07,3.0,WNW,5.8,-,0.00,Rain,Light Rain,290,2013-01-28 14:10:00
6:24 AM,42.8,37.4,81,30.07,2.5,Calm,Calm,-,0.01,Rain,Light Rain,0,2013-01-28 14:24:00
6:46 AM,42.8,39.2,87,30.08,3.0,WNW,3.5,-,0.04,Rain,Light Rain,300,2013-01-28 14:46:00
6:53 AM,43.0,37.9,82,30.08,4.0,Calm,Calm,-,0.04,Rain,Light Rain,0,2013-01-28 14:53:00
7:18 AM,42.8,39.2,87,30.08,4.0,Calm,Calm,-,N/A,Rain,Light Rain,0,2013-01-28 15:18:00
7:45 AM,42.8,39.2,87,30.08,2.0,Calm,Calm,-,0.02,Rain,Light Rain,0,2013-01-28 15:45:00
7:53 AM,43.0,39.0,86,30.09,2.5,Calm,Calm,-,0.03,Rain,Light Rain,0,2013-01-28 15:53:00
8:28 AM,42.8,39.2,87,30.07,1.5,Calm,Calm,-,0.04,Rain,Light Rain,0,2013-01-28 16:28:00
8:39 AM,42.8,39.2,87,30.07,2.0,Calm,Calm,-,0.04,Rain,Light Rain,0,2013-01-28 16:39:00
8:53 AM,43.0,39.0,86,30.08,2.0,WSW,3.5,-,0.05,Rain,Light Rain,250,2013-01-28 16:53:00
9:10 AM,44.6,39.2,81,30.07,3.0,West,3.5,-,0.00,Rain,Light Rain,260,2013-01-28 17:10:00
9:21 AM,44.6,39.2,81,30.07,2.5,West,3.5,-,0.00,Rain,Light Rain,260,2013-01-28 17:21:00
9:44 AM,44.6,39.2,81,30.07,3.0,WSW,6.9,-,0.01,Rain,Light Rain,250,2013-01-28 17:44:00
9:53 AM,44.1,39.9,85,30.08,2.5,WSW,5.8,-,0.02,Rain,Light Rain,250,2013-01-28 17:53:00
10:06 AM,44.6,39.2,81,30.07,1.8,WSW,3.5,-,0.00,Rain,Light Rain,250,2013-01-28 18:06:00
10:37 AM,44.6,39.2,81,30.07,1.2,WSW,5.8,-,0.03,Rain,Light Rain,240,2013-01-28 18:37:00
10:45 AM,44.6,41.0,87,30.07,1.8,WSW,3.5,-,0.04,Rain,Light Rain,240,2013-01-28 18:45:00
10:53 AM,45.0,41.0,86,30.08,1.5,SW,3.5,-,0.04,Rain,Light Rain,220,2013-01-28 18:53:00
11:02 AM,44.6,41.0,87,30.08,1.2,SW,4.6,-,0.02,Rain,Light Rain,220,2013-01-28 19:02:00
11:13 AM,44.6,41.0,87,30.08,1.5,SW,4.6,-,0.02,Rain,Light Rain,230,2013-01-28 19:13:00
11:22 AM,44.6,41.0,87,30.08,1.8,WSW,5.8,-,0.03,Rain,Light Rain,240,2013-01-28 19:22:00
11:26 AM,44.6,41.0,87,30.08,2.0,WSW,6.9,-,0.03,Rain,Light Rain,250,2013-01-28 19:26:00
11:35 AM,44.6,41.0,87,30.08,2.0,WSW,6.9,-,0.03,Rain,Light Rain,250,2013-01-28 19:35:00
11:38 AM,44.6,41.0,87,30.08,1.8,WSW,5.8,-,0.04,Rain,Light Rain,250,2013-01-28 19:38:00
11:42 AM,44.6,41.0,87,30.08,1.2,WSW,10.4,19.6,0.04,Rain,Light Rain,250,2013-01-28 19:42:00
11:49 AM,44.6,41.0,87,30.08,2.0,West,9.2,19.6,0.05,Rain,Light Rain,260,2013-01-28 19:49:00
11:53 AM,45.0,41.0,86,30.08,2.0,West,9.2,-,0.05,Rain,Light Rain,260,2013-01-28 19:53:00
12:01 PM,44.6,41.0,87,30.07,1.5,West,11.5,17.3,0.00,Rain,Light Rain,270,2013-01-28 20:01:00
12:11 PM,44.6,39.2,81,30.08,2.0,West,9.2,-,0.01,Rain,Light Rain,280,2013-01-28 20:11:00
12:19 PM,44.6,41.0,87,30.07,1.2,West,8.1,-,0.02,Rain,Light Rain,260,2013-01-28 20:19:00
12:25 PM,44.6,39.2,81,30.07,1.5,West,12.7,-,0.02,Rain,Light Rain,260,2013-01-28 20:25:00
12:34 PM,44.6,39.2,81,30.07,2.0,West,9.2,-,0.03,Rain,Light Rain,280,2013-01-28 20:34:00
12:53 PM,45.0,39.9,82,30.07,2.0,West,8.1,-,0.03,Rain,Light Rain,270,2013-01-28 20:53:00
12:57 PM,44.6,39.2,81,30.07,1.5,West,5.8,-,0.01,Rain,Light Rain,280,2013-01-28 20:57:00
1:00 PM,44.6,41.0,87,30.07,1.2,West,5.8,-,0.01,Rain,Light Rain,280,2013-01-28 21:00:00
1:08 PM,44.6,41.0,87,30.07,1.2,WNW,5.8,-,0.02,Rain,Light Rain,300,2013-01-28 21:08:00
1:16 PM,44.6,41.0,87,30.07,1.8,West,6.9,-,0.03,Rain,Light Rain,280,2013-01-28 21:16:00
1:33 PM,44.6,41.0,87,30.06,2.0,West,9.2,-,0.04,Rain,Light Rain,280,2013-01-28 21:33:00
1:53 PM,45.0,39.9,82,30.06,1.5,West,8.1,-,0.05,Rain,Light Rain,280,2013-01-28 21:53:00
2:05 PM,44.6,39.2,81,30.06,3.0,WNW,5.8,-,0.01,Rain,Light Rain,290,2013-01-28 22:05:00
2:12 PM,44.6,39.2,81,30.06,2.5,WNW,5.8,-,0.01,Rain,Light Rain,290,2013-01-28 22:12:00
2:28 PM,44.6,39.2,81,30.06,1.8,West,9.2,-,0.02,Rain,Light Rain,270,2013-01-28 22:28:00
2:35 PM,44.6,39.2,81,30.06,2.5,West,5.8,-,0.02,Rain,Light Rain,280,2013-01-28 22:35:00
2:39 PM,44.6,39.2,81,30.06,1.8,West,5.8,-,0.03,Rain,Light Rain,280,2013-01-28 22:39:00
2:51 PM,44.6,39.2,81,30.06,2.0,WNW,5.8,-,0.04,Rain,Light Rain,290,2013-01-28 22:51:00
2:53 PM,45.0,39.9,82,30.07,2.5,WNW,6.9,-,0.04,Rain,Light Rain,300,2013-01-28 22:53:00
3:08 PM,44.6,39.2,81,30.07,1.2,West,6.9,-,0.01,Rain,Light Rain,280,2013-01-28 23:08:00
3:16 PM,44.6,39.2,81,30.07,1.0,WNW,4.6,-,0.03,Rain,Light Rain,300,2013-01-28 23:16:00
3:25 PM,44.6,39.2,81,30.07,1.5,NW,6.9,17.3,0.04,Rain,Light Rain,310,2013-01-28 23:25:00
3:28 PM,44.6,39.2,81,30.07,1.2,NW,9.2,-,0.04,Rain,Light Rain,310,2013-01-28 23:28:00
3:31 PM,44.6,39.2,81,30.06,1.5,NW,5.8,-,0.05,Rain,Light Rain,310,2013-01-28 23:31:00
3:53 PM,45.0,39.9,82,30.07,2.0,WNW,8.1,-,0.06,Rain,Light Rain,300,2013-01-28 23:53:00
3:55 PM,44.6,39.2,81,30.06,2.0,WNW,6.9,-,0.00,Rain,Light Rain,290,2013-01-28 23:55:00
4:09 PM,44.6,39.2,81,30.07,3.0,West,9.2,-,0.01,Rain,Light Rain,280,2013-01-29 00:09:00
4:11 PM,44.6,39.2,81,30.06,2.5,West,11.5,16.1,0.01,Rain,Light Rain,270,2013-01-29 00:11:00
4:23 PM,44.6,39.2,81,30.06,3.0,West,9.2,-,0.01,Rain,Light Rain,280,2013-01-29 00:23:00
4:33 PM,44.6,39.2,81,30.06,2.5,West,6.9,16.1,0.02,Rain,Light Rain,280,2013-01-29 00:33:00
4:45 PM,44.6,39.2,81,30.06,1.8,WNW,8.1,18.4,0.03,Rain,Light Rain,290,2013-01-29 00:45:00
4:53 PM,45.0,39.9,82,30.07,2.0,WNW,6.9,-,0.03,Rain,Light Rain,290,2013-01-29 00:53:00
5:03 PM,44.6,39.2,81,30.07,2.0,WNW,5.8,-,0.01,Rain,Light Rain,300,2013-01-29 01:03:00
5:13 PM,44.6,39.2,81,30.08,4.0,WNW,9.2,-,0.01,Rain,Light Rain,300,2013-01-29 01:13:00
5:36 PM,44.6,39.2,81,30.08,4.0,WNW,5.8,-,0.02,Rain,Light Rain,290,2013-01-29 01:36:00
5:53 PM,45.0,39.9,82,30.08,5.0,WNW,6.9,-,0.02,Rain,Light Rain,290,2013-01-29 01:53:00
6:01 PM,44.6,39.2,81,30.08,4.0,Variable,6.9,-,0.00,Rain,Light Rain,0,2013-01-29 02:01:00
6:36 PM,44.6,39.2,81,30.08,4.0,WNW,9.2,-,0.01,Rain,Light Rain,290,2013-01-29 02:36:00
6:53 PM,45.0,39.9,82,30.09,4.0,WNW,6.9,17.3,0.02,Rain,Light Rain,290,2013-01-29 02:53:00
7:53 PM,45.0,39.9,82,30.09,5.0,WNW,3.5,-,0.00,,Haze,300,2013-01-29 03:53:00
8:00 PM,44.6,41.0,87,30.09,2.5,West,5.8,-,0.00,Rain,Light Rain,270,2013-01-29 04:00:00
8:02 PM,44.6,41.0,87,30.09,1.8,West,5.8,-,0.01,Rain,Rain,260,2013-01-29 04:02:00
8:10 PM,44.6,41.0,87,30.10,2.0,West,8.1,-,0.02,Rain,Light Rain,280,2013-01-29 04:10:00
8:16 PM,44.6,41.0,87,30.10,3.0,WNW,6.9,-,0.02,Rain,Light Rain,290,2013-01-29 04:16:00
8:25 PM,44.6,41.0,87,30.10,4.0,WNW,4.6,-,0.02,Rain,Light Rain,290,2013-01-29 04:25:00
8:34 PM,44.6,41.0,87,30.10,2.0,West,4.6,-,0.03,Rain,Light Rain,280,2013-01-29 04:34:00
8:39 PM,44.6,41.0,87,30.10,1.8,WNW,4.6,-,0.03,Rain,Light Rain,290,2013-01-29 04:39:00
8:48 PM,44.6,41.0,87,30.10,2.0,WNW,3.5,-,0.04,Rain,Light Rain,300,2013-01-29 04:48:00
8:53 PM,45.0,41.0,86,30.10,4.0,West,4.6,-,0.04,Rain,Light Rain,270,2013-01-29 04:53:00
9:10 PM,44.6,41.0,87,30.09,4.0,West,5.8,-,0.00,Rain,Light Rain,270,2013-01-29 05:10:00
9:44 PM,44.6,41.0,87,30.10,5.0,West,6.9,-,0.00,,Overcast,280,2013-01-29 05:44:00
9:53 PM,45.0,41.0,86,30.11,5.0,WNW,5.8,-,0.00,,Overcast,290,2013-01-29 05:53:00
10:31 PM,46.4,41.0,81,30.11,1.8,West,6.9,-,0.00,Rain,Light Rain,280,2013-01-29 06:31:00
10:35 PM,46.4,42.8,87,30.11,1.2,Variable,4.6,-,0.00,Rain,Light Rain,0,2013-01-29 06:35:00
10:41 PM,46.4,42.8,87,30.11,1.5,West,8.1,-,0.01,Rain,Light Rain,280,2013-01-29 06:41:00
10:45 PM,46.4,41.0,81,30.11,2.0,WNW,8.1,16.1,0.01,Rain,Light Rain,290,2013-01-29 06:45:00
10:48 PM,46.4,41.0,81,30.11,3.0,West,9.2,16.1,0.01,,Haze,280,2013-01-29 06:48:00
10:53 PM,46.0,41.0,83,30.12,5.0,WNW,10.4,17.3,0.01,,Haze,290,2013-01-29 06:53:00
11:05 PM,46.4,41.0,81,30.12,1.8,WNW,4.6,-,0.00,Rain,Light Rain,300,2013-01-29 07:05:00
11:15 PM,46.4,42.8,87,30.12,1.2,WNW,8.1,-,0.01,Rain,Light Rain,300,2013-01-29 07:15:00
11:24 PM,46.4,42.8,87,30.13,1.8,WNW,10.4,-,0.01,Rain,Light Rain,290,2013-01-29 07:24:00
11:53 PM,46.0,42.1,86,30.14,1.2,WNW,6.9,-,0.03,Rain,Light Rain,290,2013-01-29 07:53:00